Time;durP1;ratioP1;P1;durP2;ratioP2;P2;SDS_P1;SDS_P2;PMS_P1;PMS_P2;Temp;Humidity;BMP_temperature;BMP_pressure;BME280_temperature;BME280_humidity;BME280_pressure;Samples;Min_cycle;Max_cycle;Signal;HPM_P1;HPM_P2
2021/06/01 00:01:49;;;;;;;6.10;5.50;;;;;;;12.64;76.96;94604.66;4979981;28;20484;-83
2021/06/01 00:04:16;;;;;;;5.43;4.93;;;;;;;12.60;77.03;94602.47;4998771;28;20441;-85
2021/06/01 00:13:26;;;;;;;7.20;4.67;;;;;;;12.60;77.56;94586.69;4996691;28;20455;-84
2021/06/01 00:15:53;;;;;;;6.20;5.30;;;;;;;12.54;77.27;94579.38;4997383;28;20452;-84
2021/06/01 00:18:21;;;;;;;5.70;5.10;;;;;;;12.50;78.72;94578.88;4998472;28;20456;-84
2021/06/01 00:20:47;;;;;;;6.70;6.00;;;;;;;12.46;78.11;94577.50;4997957;28;20449;-84
2021/06/01 00:23:14;;;;;;;10.40;5.30;;;;;;;12.47;78.45;94570.44;4997474;28;20457;-84
2021/06/01 00:25:41;;;;;;;12.00;6.57;;;;;;;12.44;78.77;94565.47;4997623;28;20546;-84
2021/06/01 00:28:07;;;;;;;5.90;5.33;;;;;;;12.38;79.10;94567.72;4997243;28;20452;-84
2021/06/01 00:30:34;;;;;;;8.23;5.33;;;;;;;12.33;79.05;94562.06;4997849;28;20436;-84
2021/06/01 00:33:00;;;;;;;6.70;5.43;;;;;;;12.29;79.59;94565.97;4997022;28;20459;-85
2021/06/01 00:35:28;;;;;;;6.23;5.07;;;;;;;12.24;79.38;94560.34;4997515;28;20462;-84
2021/06/01 00:41:17;;;;;;;7.83;5.17;;;;;;;12.10;79.24;94563.44;4996592;28;20827;-84
2021/06/01 00:43:44;;;;;;;8.60;5.90;;;;;;;12.05;79.54;94556.00;4997155;28;20447;-85
2021/06/01 00:46:10;;;;;;;6.07;5.50;;;;;;;12.05;78.85;94560.44;4996749;28;20508;-84
2021/06/01 00:48:37;;;;;;;6.07;5.47;;;;;;;12.02;78.89;94558.13;4997047;28;20946;-84
2021/06/01 00:51:05;;;;;;;5.00;4.60;;;;;;;12.01;79.21;94549.41;4998011;28;20442;-85
2021/06/01 00:53:33;;;;;;;6.90;6.27;;;;;;;12.02;78.65;94555.47;4997153;28;20449;-84
2021/06/01 00:55:59;;;;;;;5.47;4.93;;;;;;;12.06;79.08;94549.78;4997461;28;20803;-84
2021/06/01 00:58:26;;;;;;;5.07;4.57;;;;;;;12.12;78.76;94553.63;4997044;28;20477;-84
2021/06/01 01:03:38;;;;;;;7.60;4.43;;;;;;;12.21;78.53;94552.75;4997019;28;20772;-84
2021/06/01 01:06:17;;;;;;;5.20;4.70;;;;;;;12.20;77.97;94553.72;4996905;28;20438;-84
2021/06/01 01:08:48;;;;;;;6.97;4.90;;;;;;;12.21;77.27;94560.63;4996682;28;20448;-84
2021/06/01 01:11:21;;;;;;;5.10;4.70;;;;;;;12.23;78.54;94557.84;4996757;28;21280;-84
2021/06/01 01:13:51;;;;;;;5.83;5.23;;;;;;;12.21;78.33;94555.38;4994649;28;20453;-84
2021/06/01 01:16:21;;;;;;;5.70;3.97;;;;;;;12.19;77.91;94557.31;4996308;28;20506;-84
2021/06/01 01:18:53;;;;;;;4.53;4.13;;;;;;;12.29;77.76;94559.88;4963150;28;20951;-84
2021/06/01 01:21:25;;;;;;;4.43;4.13;;;;;;;12.28;76.85;94560.88;4996200;28;20430;-85
2021/06/01 01:23:58;;;;;;;4.70;4.20;;;;;;;12.32;76.02;94552.53;4996496;28;20436;-84
2021/06/01 01:26:35;;;;;;;8.57;5.70;;;;;;;12.29;76.92;94560.72;4997379;28;20504;-84
2021/06/01 01:29:10;;;;;;;6.53;5.93;;;;;;;12.22;77.30;94551.78;4998211;28;20500;-84
2021/06/01 01:31:44;;;;;;;6.80;5.60;;;;;;;12.23;77.99;94558.69;4997677;28;20448;-84
2021/06/01 01:34:16;;;;;;;16.77;6.77;;;;;;;12.18;77.36;94552.22;4997626;28;20464;-83
2021/06/01 01:36:45;;;;;;;5.83;5.33;;;;;;;12.14;78.73;94549.03;4997594;28;20488;-84
2021/06/01 01:39:12;;;;;;;6.00;5.50;;;;;;;12.16;78.84;94547.09;4997397;28;20984;-83
2021/06/01 01:41:41;;;;;;;6.57;5.87;;;;;;;12.16;78.83;94541.84;4997714;28;20459;-84
2021/06/01 01:44:11;;;;;;;6.47;5.87;;;;;;;12.26;79.05;94552.28;4997535;28;20963;-83
2021/06/01 01:46:54;;;;;;;7.13;6.47;;;;;;;12.33;79.11;94551.53;4997465;28;20441;-84
2021/06/01 01:49:24;;;;;;;6.13;5.53;;;;;;;12.32;78.50;94549.88;4995019;28;20450;-84
2021/06/01 01:51:53;;;;;;;6.90;6.27;;;;;;;12.33;79.20;94553.34;4995511;28;20498;-84
2021/06/01 01:54:22;;;;;;;6.60;6.00;;;;;;;12.33;79.93;94545.47;4996670;28;20501;-84
2021/06/01 02:00:13;;;;;;;6.40;5.77;;;;;;;12.39;80.49;94542.22;4994519;28;20442;-84
2021/06/01 02:02:39;;;;;;;6.23;5.63;;;;;;;12.44;80.45;94544.44;4996415;28;20438;-83
2021/06/01 02:05:10;;;;;;;6.20;5.60;;;;;;;12.52;80.31;94544.50;4996176;28;20440;-84
2021/06/01 02:07:37;;;;;;;7.63;6.93;;;;;;;12.55;80.50;94541.56;4978586;28;20454;-83
2021/06/01 02:13:27;;;;;;;7.73;6.80;;;;;;;12.72;80.35;94545.97;4994525;28;20795;-83
2021/06/01 02:15:55;;;;;;;6.93;6.20;;;;;;;12.76;79.86;94550.00;4996397;28;20436;-83
2021/06/01 02:18:21;;;;;;;8.07;7.27;;;;;;;12.79;79.10;94540.97;4994379;28;20491;-84
2021/06/01 02:20:52;;;;;;;6.67;6.10;;;;;;;12.72;79.20;94538.09;4996348;28;20435;-84
2021/06/01 02:26:17;;;;;;;6.40;5.83;;;;;;;12.62;78.87;94532.91;4996216;28;20907;-84
2021/06/01 02:32:08;;;;;;;7.53;6.00;;;;;;;12.33;79.35;94537.56;4994785;28;20508;-84
2021/06/01 02:34:39;;;;;;;7.27;6.57;;;;;;;12.17;80.90;94532.97;4995889;28;20448;-84
2021/06/01 02:37:08;;;;;;;5.83;5.33;;;;;;;12.19;81.15;94536.28;4994958;28;20516;-84
2021/06/01 02:39:35;;;;;;;7.43;6.73;;;;;;;12.17;81.53;94537.41;4992822;28;20938;-84
2021/06/01 02:42:03;;;;;;;6.43;5.83;;;;;;;12.24;81.54;94544.56;4995078;28;20433;-84
2021/06/01 02:44:31;;;;;;;9.33;7.90;;;;;;;12.19;84.42;94549.44;4995345;28;20500;-83
2021/06/01 02:46:58;;;;;;;10.73;7.20;;;;;;;12.27;84.71;94549.50;4996840;28;20438;-84
2021/06/01 02:52:49;;;;;;;6.20;5.70;;;;;;;12.38;84.27;94546.66;4994912;28;20424;-84
2021/06/01 02:55:18;;;;;;;7.07;5.90;;;;;;;12.44;83.87;94549.69;4977065;28;20953;-84
2021/06/01 02:57:45;;;;;;;7.13;6.43;;;;;;;12.50;84.03;94546.47;4994725;28;20569;-85
2021/06/01 03:00:15;;;;;;;7.53;6.80;;;;;;;12.59;84.54;94558.72;4994973;28;20467;-84
2021/06/01 03:02:41;;;;;;;7.40;6.70;;;;;;;12.62;84.27;94551.34;4960897;28;20437;-84
2021/06/01 03:05:10;;;;;;;9.43;8.50;;;;;;;12.60;84.65;94555.09;4996171;28;20882;-84
2021/06/01 03:07:38;;;;;;;7.10;6.40;;;;;;;12.62;85.99;94558.41;4996277;28;20470;-84
2021/06/01 03:10:10;;;;;;;5.83;5.33;;;;;;;12.50;82.99;94549.91;4996510;28;20925;-84
2021/06/01 03:12:44;;;;;;;4.83;4.33;;;;;;;12.30;82.94;94551.84;4995963;28;20465;-83
2021/06/01 03:15:12;;;;;;;4.17;3.83;;;;;;;12.26;83.05;94547.88;4998716;28;20451;-84
2021/06/01 03:17:39;;;;;;;5.37;4.87;;;;;;;12.31;83.38;94547.41;4996933;28;20483;-84
2021/06/01 03:20:07;;;;;;;5.53;4.97;;;;;;;12.32;83.61;94544.63;4998749;28;20444;-84
2021/06/01 03:22:34;;;;;;;5.40;4.93;;;;;;;12.32;83.65;94541.16;4996889;28;20458;-83
2021/06/01 03:25:01;;;;;;;5.27;4.77;;;;;;;12.35;83.75;94541.69;4999560;28;20458;-83
2021/06/01 03:27:29;;;;;;;5.93;5.43;;;;;;;12.42;83.70;94547.19;4999401;28;20460;-85
2021/06/01 03:29:55;;;;;;;5.60;5.00;;;;;;;12.46;84.40;94551.19;4998606;28;20442;-83
2021/06/01 03:32:22;;;;;;;5.90;4.93;;;;;;;12.47;84.38;94544.13;4998747;28;20454;-81
2021/06/01 03:34:48;;;;;;;5.53;5.03;;;;;;;12.39;85.44;94544.84;4998641;28;20507;-82
2021/06/01 03:37:15;;;;;;;4.90;4.50;;;;;;;12.26;87.18;94544.41;4998159;28;20477;-83
2021/06/01 03:39:42;;;;;;;7.60;4.47;;;;;;;12.20;87.81;94545.84;4998924;28;20433;-83
2021/06/01 03:42:12;;;;;;;5.20;4.37;;;;;;;12.22;89.43;94540.41;4998547;28;20417;-83
2021/06/01 03:44:40;;;;;;;4.90;4.50;;;;;;;12.20;89.68;94543.19;4999746;28;20452;-81
2021/06/01 03:47:07;;;;;;;5.93;5.27;;;;;;;12.26;90.16;94537.34;4999578;28;20783;-82
2021/06/01 03:49:34;;;;;;;5.37;4.60;;;;;;;12.22;90.23;94540.41;4998508;28;20476;-82
2021/06/01 03:52:06;;;;;;;5.50;4.90;;;;;;;12.21;90.24;94534.34;4998746;28;20445;-82
2021/06/01 03:54:33;;;;;;;6.33;5.67;;;;;;;12.33;90.57;94550.72;4998533;28;20626;-82
2021/06/01 03:56:59;;;;;;;5.53;5.03;;;;;;;12.37;91.26;94545.00;4998078;28;20469;-82
2021/06/01 03:59:40;;;;;;;5.17;4.33;;;;;;;12.40;90.31;94544.69;4998351;28;20453;-84
2021/06/01 04:02:07;;;;;;;5.10;4.67;;;;;;;12.43;90.09;94548.00;4998929;28;20479;-84
2021/06/01 04:04:34;;;;;;;5.57;5.07;;;;;;;12.53;89.65;94538.25;4998256;28;20455;-83
2021/06/01 04:07:02;;;;;;;6.07;5.30;;;;;;;12.60;88.73;94534.88;4998111;28;20445;-85
2021/06/01 04:09:28;;;;;;;7.07;5.13;;;;;;;12.75;89.68;94537.81;4998251;28;20430;-83
2021/06/01 04:11:55;;;;;;;5.27;4.77;;;;;;;12.86;89.40;94532.28;4997306;28;20483;-85
2021/06/01 04:14:22;;;;;;;7.17;5.33;;;;;;;12.88;89.60;94532.97;4998876;28;20965;-85
2021/06/01 04:16:50;;;;;;;5.30;4.80;;;;;;;13.05;89.44;94533.09;4998331;28;20930;-87
2021/06/01 04:19:16;;;;;;;5.47;5.00;;;;;;;13.16;88.17;94531.03;4998384;28;20457;-86
2021/06/01 04:21:43;;;;;;;4.97;4.53;;;;;;;13.24;87.29;94528.47;4997510;28;20443;-84
2021/06/01 04:24:10;;;;;;;3.77;3.47;;;;;;;13.16;84.81;94520.50;4997125;28;21079;-84
2021/06/01 04:26:37;;;;;;;5.17;4.77;;;;;;;13.16;82.97;94525.75;4997724;28;20440;-84
2021/06/01 04:29:03;;;;;;;3.80;3.60;;;;;;;13.10;82.49;94526.38;4997381;28;20449;-84
2021/06/01 04:31:30;;;;;;;8.27;4.40;;;;;;;12.95;82.59;94531.38;4997378;28;20482;-82
2021/06/01 04:33:58;;;;;;;3.60;3.40;;;;;;;12.90;82.69;94528.38;4979502;28;20478;-83
2021/06/01 04:36:25;;;;;;;4.03;3.73;;;;;;;12.69;83.03;94527.84;4997208;28;20530;-87
2021/06/01 04:38:52;;;;;;;8.13;6.80;;;;;;;13.90;100.00;94514.66;4999513;28;20958;-86
2021/06/01 04:41:19;;;;;;;5.03;4.63;;;;;;;14.42;93.25;94524.16;4999089;28;20432;-88
2021/06/01 04:43:45;;;;;;;4.23;3.87;;;;;;;14.51;81.08;94545.19;4998301;28;20483;-85
2021/06/01 04:46:12;;;;;;;4.87;4.47;;;;;;;14.17;77.67;94536.50;4997159;28;20861;-83
2021/06/01 04:48:38;;;;;;;4.47;4.07;;;;;;;13.59;81.07;94538.09;4997663;28;20451;-84
2021/06/01 04:51:16;;;;;;;5.50;4.70;;;;;;;13.28;83.98;94544.78;4998655;28;20463;-84
2021/06/01 04:53:45;;;;;;;4.30;4.00;;;;;;;12.98;85.77;94543.41;4981114;28;20438;-84
2021/06/01 04:56:11;;;;;;;4.97;4.57;;;;;;;12.84;88.21;94547.41;4997471;28;20449;-85
2021/06/01 04:58:38;;;;;;;6.03;5.37;;;;;;;12.73;88.38;94547.66;4998521;28;20482;-84
2021/06/01 05:04:33;;;;;;;4.43;4.10;;;;;;;12.44;90.33;94554.97;4975199;28;21035;-84
2021/06/01 05:07:01;;;;;;;5.77;5.20;;;;;;;12.37;91.46;94550.25;4963090;28;20443;-84
2021/06/01 05:09:28;;;;;;;5.50;5.00;;;;;;;12.37;92.17;94545.00;4978984;28;20439;-84
2021/06/01 05:11:55;;;;;;;8.70;5.57;;;;;;;12.31;92.28;94557.94;4996563;28;20935;-84
2021/06/01 05:14:22;;;;;;;4.57;4.17;;;;;;;12.27;91.83;94546.88;4996834;28;20815;-85
2021/06/01 05:16:48;;;;;;;4.50;4.10;;;;;;;12.23;92.21;94545.53;4996932;28;21024;-85
2021/06/01 05:19:15;;;;;;;5.37;4.30;;;;;;;12.23;92.50;94544.72;4979679;28;20444;-84
2021/06/01 05:21:41;;;;;;;3.50;3.20;;;;;;;12.20;91.99;94542.38;4996930;28;20854;-84
2021/06/01 05:24:11;;;;;;;4.67;4.17;;;;;;;12.32;92.10;94547.25;4998723;28;20440;-85
2021/06/01 05:26:39;;;;;;;4.10;3.80;;;;;;;12.33;92.17;94548.91;4991958;28;20455;-84
2021/06/01 05:29:05;;;;;;;5.37;4.87;;;;;;;12.39;92.69;94548.31;4977797;28;20445;-85
2021/06/01 05:31:40;;;;;;;4.53;4.10;;;;;;;12.46;93.00;94547.75;4977773;28;20482;-85
2021/06/01 05:34:08;;;;;;;5.00;4.60;;;;;;;12.50;92.58;94552.53;4977833;28;20437;-84
2021/06/01 05:36:34;;;;;;;3.90;3.60;;;;;;;12.47;91.43;94541.50;4996046;28;20435;-83
2021/06/01 05:39:01;;;;;;;4.70;4.30;;;;;;;12.47;92.45;94550.22;4996728;28;20511;-84
2021/06/01 05:41:29;;;;;;;5.60;5.10;;;;;;;12.55;93.42;94542.38;4997001;28;20814;-85
2021/06/01 05:43:55;;;;;;;5.72;5.10;;;;;;;12.58;92.63;94544.72;4997499;28;20441;-84
2021/06/01 05:46:22;;;;;;;5.57;5.07;;;;;;;12.63;91.04;94541.63;4998046;28;20197;-84
2021/06/01 05:48:49;;;;;;;3.87;3.57;;;;;;;12.69;90.70;94543.66;4996721;28;20907;-84
2021/06/01 05:51:17;;;;;;;5.97;5.17;;;;;;;12.83;90.72;94545.75;4978575;28;20433;-85
2021/06/01 05:53:44;;;;;;;4.70;4.30;;;;;;;12.98;90.74;94538.94;4996381;28;20455;-84
2021/06/01 05:56:11;;;;;;;5.03;4.63;;;;;;;13.08;90.34;94543.31;4996122;28;20446;-85
2021/06/01 05:58:39;;;;;;;8.07;4.90;;;;;;;13.27;90.76;94540.50;4995775;28;20889;-85
2021/06/01 06:01:05;;;;;;;5.20;3.90;;;;;;;13.42;89.00;94546.03;4996643;28;20484;-79
2021/06/01 06:03:32;;;;;;;4.20;3.83;;;;;;;13.41;85.83;94545.22;4996054;28;20486;-84
2021/06/01 06:05:59;;;;;;;4.80;4.23;;;;;;;13.45;86.38;94541.28;4996168;28;20475;-83
2021/06/01 06:18:42;;;;;;;4.73;4.00;;;;;;;15.04;100.00;94524.59;4995180;28;20998;-87
2021/06/01 06:21:10;;;;;;;4.23;3.83;;;;;;;15.78;93.25;94534.06;4996679;28;20496;-84
2021/06/01 06:23:40;;;;;;;3.73;3.43;;;;;;;16.08;77.56;94551.81;4978009;28;20443;-84
2021/06/01 06:26:07;;;;;;;3.70;3.40;;;;;;;16.52;81.88;94540.69;4997434;28;20430;-85
2021/06/01 06:28:33;;;;;;;4.67;4.27;;;;;;;16.72;80.69;94541.88;4996112;28;20435;-88
2021/06/01 06:31:00;;;;;;;4.10;3.73;;;;;;;16.83;72.82;94542.50;4995727;28;20448;-84
2021/06/01 06:36:50;;;;;;;5.30;3.70;;;;;;;15.75;71.26;94545.81;4994100;28;20482;-81
2021/06/01 06:39:17;;;;;;;4.70;4.23;;;;;;;15.16;73.68;94542.56;4977428;28;20445;-86
2021/06/01 06:41:43;;;;;;;9.60;8.30;;;;;;;15.01;76.22;94531.00;4995274;28;20418;-84
2021/06/01 06:44:12;;;;;;;3.70;3.40;;;;;;;14.73;76.30;94538.44;4994979;28;20909;-84
2021/06/01 06:46:41;;;;;;;4.57;4.17;;;;;;;14.64;79.41;94534.13;4998785;28;20456;-85
2021/06/01 06:49:09;;;;;;;3.73;3.33;;;;;;;14.56;78.03;94540.25;4998130;28;20443;-83
2021/06/01 06:51:35;;;;;;;4.90;4.50;;;;;;;14.41;77.61;94533.06;4996579;28;20539;-83
2021/06/01 06:54:04;;;;;;;3.47;3.17;;;;;;;14.23;78.07;94547.25;4995704;28;20456;-84
2021/06/01 06:56:31;;;;;;;4.23;3.70;;;;;;;14.23;79.82;94539.31;4997995;28;20464;-85
2021/06/01 06:58:59;;;;;;;3.33;3.10;;;;;;;14.12;78.98;94539.59;4997794;28;20526;-84
2021/06/01 07:01:28;;;;;;;6.80;3.50;;;;;;;14.02;79.04;94549.47;4995169;28;20490;-84
2021/06/01 07:03:55;;;;;;;3.60;3.30;;;;;;;14.09;79.61;94554.94;4994734;28;20437;-84
2021/06/01 07:06:23;;;;;;;5.17;4.17;;;;;;;14.13;79.68;94550.97;4976995;28;20534;-84
2021/06/01 07:08:53;;;;;;;3.50;3.20;;;;;;;14.19;79.40;94553.00;4998739;28;20468;-85
2021/06/01 07:11:21;;;;;;;4.40;4.00;;;;;;;14.20;79.16;94547.56;4997817;28;20449;-87
2021/06/01 07:13:52;;;;;;;3.70;3.40;;;;;;;14.27;76.94;94539.81;4997073;28;20831;-87
2021/06/01 07:16:19;;;;;;;3.53;3.23;;;;;;;14.29;76.33;94544.94;4998400;28;20448;-85
2021/06/01 07:18:50;;;;;;;5.20;2.83;;;;;;;14.44;76.27;94544.16;4999535;28;20488;-84
2021/06/01 07:21:16;;;;;;;3.47;3.23;;;;;;;14.34;75.78;94540.00;4997835;28;20529;-85
2021/06/01 07:23:43;;;;;;;3.87;3.50;;;;;;;14.36;76.30;94538.03;4997507;28;20437;-85
2021/06/01 07:26:11;;;;;;;3.20;2.90;;;;;;;14.67;75.97;94539.09;4996979;28;20440;-85
2021/06/01 07:28:39;;;;;;;2.83;2.63;;;;;;;15.03;74.51;94538.78;4996967;28;20451;-84
2021/06/01 07:31:07;;;;;;;4.70;3.13;;;;;;;15.28;73.62;94543.06;4996926;28;20460;-85
2021/06/01 07:33:35;;;;;;;3.50;3.20;;;;;;;15.56;72.68;94546.16;5000159;28;20418;-84
2021/06/01 07:36:03;;;;;;;3.70;3.30;;;;;;;15.87;71.78;94537.50;4963321;28;20473;-84
2021/06/01 07:38:30;;;;;;;3.27;2.97;;;;;;;15.78;69.20;94545.47;4995980;28;20479;-85
2021/06/01 07:40:56;;;;;;;4.77;3.67;;;;;;;15.47;70.42;94548.00;4996184;28;20456;-84
2021/06/01 07:43:23;;;;;;;7.53;2.80;;;;;;;15.31;70.65;94544.53;4995876;28;20950;-86
2021/06/01 07:45:51;;;;;;;3.57;3.27;;;;;;;15.07;70.96;94555.97;4996748;28;20439;-85
2021/06/01 07:48:18;;;;;;;3.30;3.07;;;;;;;14.76;70.67;94545.22;4995148;28;20519;-83
2021/06/01 07:50:45;;;;;;;3.10;2.80;;;;;;;14.65;71.40;94550.81;4994948;28;20463;-85
2021/06/01 07:53:11;;;;;;;3.20;3.00;;;;;;;14.47;71.54;94556.25;4995727;28;20537;-87
2021/06/01 07:55:38;;;;;;;3.43;3.13;;;;;;;14.61;72.83;94549.50;4995878;28;20457;-87
2021/06/01 07:58:05;;;;;;;10.60;5.27;;;;;;;14.59;74.21;94552.28;4998014;28;20480;-85
2021/06/01 08:00:31;;;;;;;6.00;4.23;;;;;;;14.54;73.54;94560.72;5002866;28;20555;-82
2021/06/01 08:05:52;;;;;;;5.90;3.83;;;;;;;14.49;73.78;94556.91;5014505;28;20479;-87
2021/06/01 08:17:09;;;;;;;9.80;5.50;;;;;;;14.84;74.64;94556.63;4980491;28;20551;-86
2021/06/01 08:19:39;;;;;;;5.90;5.00;;;;;;;15.21;74.38;94557.94;4998871;28;20482;-86
2021/06/01 08:22:12;;;;;;;10.33;4.17;;;;;;;15.36;71.91;94558.09;4997823;28;20811;-85
2021/06/01 08:24:39;;;;;;;4.27;3.87;;;;;;;15.25;71.31;94564.53;4998609;28;20467;-85
2021/06/01 08:27:06;;;;;;;5.20;4.70;;;;;;;15.25;72.25;94569.81;4999532;28;20460;-84
2021/06/01 08:29:33;;;;;;;8.30;5.20;;;;;;;15.07;72.53;94569.19;5012839;28;20444;-86
2021/06/01 08:32:00;;;;;;;6.40;5.87;;;;;;;14.79;75.68;94560.75;5018846;28;20814;-84
2021/06/01 08:34:26;;;;;;;7.27;6.53;;;;;;;14.78;79.63;94559.09;5020612;28;20958;-87
2021/06/01 08:36:54;;;;;;;7.33;6.27;;;;;;;14.77;77.82;94565.38;5019464;28;20456;-87
2021/06/01 08:39:25;;;;;;;8.27;7.40;;;;;;;14.88;79.85;94563.22;4969098;28;20443;-87
2021/06/01 08:49:32;;;;;;;6.67;6.00;;;;;;;15.29;76.99;94565.03;4980548;28;20503;-87
2021/06/01 08:52:00;;;;;;;22.63;8.27;;;;;;;15.39;77.54;94561.22;4991298;28;20448;-86
2021/06/01 08:54:28;;;;;;;11.67;6.30;;;;;;;15.28;76.47;94568.66;5000694;28;20867;-86
2021/06/01 08:56:54;;;;;;;7.30;6.50;;;;;;;15.31;74.95;94563.88;4999411;28;20440;-87
2021/06/01 08:59:21;;;;;;;6.27;5.67;;;;;;;15.36;76.82;94564.22;4997960;28;20446;-87
2021/06/01 09:01:48;;;;;;;108.47;18.57;;;;;;;15.36;76.06;94560.75;4998146;28;20505;-92
2021/06/01 09:09:47;;;;;;;5.37;4.87;;;;;;;14.97;75.85;94571.16;5757726;23;20510;-87
2021/06/01 09:12:28;;;;;;;7.77;5.97;;;;;;;14.89;75.87;94561.41;4958521;28;20444;-87
2021/06/01 09:23:18;;;;;;;4.80;4.40;;;;;;;15.00;72.92;94561.06;4940584;29;20498;-88
2021/06/01 09:25:48;;;;;;;5.40;4.90;;;;;;;14.80;73.67;94555.31;4940963;29;20478;-89
2021/06/01 09:28:17;;;;;;;5.20;4.70;;;;;;;14.53;74.53;94547.66;4942670;29;20445;-87
2021/06/01 09:30:46;;;;;;;5.47;5.07;;;;;;;14.46;77.09;94562.50;4940620;29;20453;-85
2021/06/01 09:33:27;;;;;;;9.63;4.60;;;;;;;14.35;77.01;94554.84;4938777;29;20507;-87
2021/06/01 09:35:56;;;;;;;6.33;5.03;;;;;;;14.21;76.84;94548.38;4938910;29;20451;-88
2021/06/01 09:38:24;;;;;;;108.67;15.60;;;;;;;14.18;77.27;94552.19;4938104;29;20486;-86
2021/06/01 09:41:05;;;;;;;33.03;8.20;;;;;;;14.40;77.74;94553.38;4939795;29;20450;-86
2021/06/01 09:43:32;;;;;;;7.20;4.37;;;;;;;14.47;75.49;94550.97;4938741;29;20986;-88
2021/06/01 09:45:58;;;;;;;4.53;4.13;;;;;;;14.53;75.86;94548.50;4937601;29;20435;-86
2021/06/01 09:48:25;;;;;;;5.40;5.00;;;;;;;14.58;77.91;94555.94;4939026;29;20454;-86
2021/06/01 09:50:55;;;;;;;11.40;4.40;;;;;;;14.60;76.63;94559.22;4937725;29;20455;-87
2021/06/01 09:56:15;;;;;;;6.03;5.43;;;;;;;14.61;76.99;94550.31;5036536;23;20494;-87
2021/06/01 09:58:42;;;;;;;7.93;4.90;;;;;;;14.89;75.83;94548.19;5041693;28;20509;-87
2021/06/01 10:01:08;;;;;;;7.57;4.60;;;;;;;15.12;74.18;94543.91;5037249;28;20440;-87
2021/06/01 10:03:44;;;;;;;12.60;5.23;;;;;;;14.99;72.59;94553.31;5001962;28;20448;-87
2021/06/01 10:06:11;;;;;;;7.27;5.70;;;;;;;14.68;73.73;94543.38;5042038;28;20442;-86
2021/06/01 10:08:42;;;;;;;5.53;5.03;;;;;;;14.55;73.90;94545.69;5040294;28;20447;-86
2021/06/01 10:11:11;;;;;;;6.73;6.13;;;;;;;14.61;74.23;94552.13;5037973;28;20460;-87
2021/06/01 10:13:40;;;;;;;19.33;8.67;;;;;;;14.99;74.23;94548.03;5036506;28;20506;-88
2021/06/01 10:16:10;;;;;;;11.10;4.93;;;;;;;15.39;72.72;94540.09;5037682;28;20447;-87
2021/06/01 10:18:39;;;;;;;6.30;5.20;;;;;;;15.59;70.28;94537.06;5038270;28;20582;-87
2021/06/01 10:21:08;;;;;;;5.33;4.77;;;;;;;15.53;68.92;94540.38;5039022;28;20476;-85
2021/06/01 10:23:38;;;;;;;6.73;5.40;;;;;;;15.34;69.46;94552.16;5036702;28;20460;-86
2021/06/01 10:26:06;;;;;;;5.60;5.10;;;;;;;15.39;69.52;94541.91;5001780;28;20439;-86
2021/06/01 10:28:35;;;;;;;7.17;5.27;;;;;;;15.59;69.36;94542.38;5036415;28;20525;-87
2021/06/01 10:31:06;;;;;;;5.30;4.80;;;;;;;15.85;68.65;94539.47;5037496;28;20448;-86
2021/06/01 10:33:37;;;;;;;6.07;5.57;;;;;;;16.08;68.47;94529.81;5036228;28;20547;-87
2021/06/01 10:36:17;;;;;;;7.10;5.73;;;;;;;15.95;66.22;94535.66;5037306;28;20450;-87
2021/06/01 10:44:35;;;;;;;7.00;6.00;;;;;;;16.03;67.02;94538.28;4986491;28;20440;-86
2021/06/01 10:50:06;;;;;;;5.60;5.00;;;;;;;15.78;68.11;94544.63;4987114;28;20484;-85
2021/06/01 10:52:33;;;;;;;5.90;5.40;;;;;;;15.69;67.40;94543.84;4987622;28;20512;-86
2021/06/01 10:55:06;;;;;;;5.63;5.13;;;;;;;15.76;66.95;94546.63;4987309;28;20482;-85
2021/06/01 10:57:56;;;;;;;5.27;4.50;;;;;;;15.97;67.59;94557.47;4982128;28;20486;-85
2021/06/01 11:03:13;;;;;;;8.00;5.53;;;;;;;16.60;66.60;94540.63;4981718;28;20437;-86
2021/06/01 11:06:01;;;;;;;7.40;5.77;;;;;;;16.57;65.80;94559.50;4975515;28;20463;-86
2021/06/01 11:08:37;;;;;;;9.07;6.53;;;;;;;16.26;67.34;94570.09;4898774;29;20484;-86
2021/06/01 11:11:28;;;;;;;6.63;6.03;;;;;;;15.68;73.30;94559.88;4899352;29;20491;-85
2021/06/01 11:13:56;;;;;;;8.67;7.00;;;;;;;15.33;76.19;94561.91;4861122;29;20457;-85
2021/06/01 11:16:23;;;;;;;6.30;5.80;;;;;;;14.94;78.02;94566.19;4861426;29;20468;-86
2021/06/01 11:19:00;;;;;;;6.47;5.87;;;;;;;14.79;78.36;94561.56;4859882;29;20485;-86
2021/06/01 11:21:35;;;;;;;6.47;5.90;;;;;;;14.72;79.21;94565.00;4867268;29;20482;-85
2021/06/01 11:35:40;;;;;;;7.00;6.40;;;;;;;15.19;75.03;94562.56;4845348;29;20440;-85
2021/06/01 11:38:22;;;;;;;7.03;6.43;;;;;;;15.21;70.73;94565.88;4845050;29;20523;-86
2021/06/01 11:43:54;;;;;;;8.40;7.60;;;;;;;15.35;69.96;94567.84;4846673;29;20460;-88
2021/06/01 11:46:28;;;;;;;8.97;7.87;;;;;;;15.36;69.74;94566.84;4881867;29;20465;-89
2021/06/01 11:51:43;;;;;;;11.20;6.33;;;;;;;15.80;68.58;94566.47;4912533;29;21046;-87
2021/06/01 11:54:13;;;;;;;11.07;7.50;;;;;;;16.03;68.33;94585.09;4921153;29;20947;-88
2021/06/01 11:56:49;;;;;;;12.10;9.13;;;;;;;16.06;66.41;94584.75;4926189;29;20521;-85
2021/06/01 12:02:32;;;;;;;5.20;4.67;;;;;;;16.39;66.96;94575.66;4938918;29;20984;-87
2021/06/01 12:05:07;;;;;;;5.80;5.23;;;;;;;16.09;66.12;94579.09;4938531;29;20461;-87
2021/06/01 12:13:48;;;;;;;6.20;5.60;;;;;;;15.16;67.02;94570.81;5037790;28;20468;-87
2021/06/01 12:19:36;;;;;;;4.17;3.83;;;;;;;15.04;67.31;94573.00;5037866;28;20402;-88
2021/06/01 12:22:03;;;;;;;4.13;3.83;;;;;;;15.10;67.34;94584.72;5038259;28;20802;-87
2021/06/01 12:24:31;;;;;;;5.20;4.70;;;;;;;15.10;68.54;94577.59;5038152;28;20435;-88
2021/06/01 12:27:02;;;;;;;5.67;5.10;;;;;;;15.14;69.00;94584.22;5038126;28;20875;-86
2021/06/01 12:32:17;;;;;;;6.23;5.63;;;;;;;15.10;70.54;94584.72;5037991;28;20435;-87
2021/06/01 12:34:52;;;;;;;5.40;5.00;;;;;;;14.97;70.30;94593.09;5037873;28;20476;-86
2021/06/01 12:46:07;;;;;;;5.30;4.90;;;;;;;14.59;77.00;94589.25;5037106;28;20463;-87
2021/06/01 13:20:29;;;;;;;3.67;3.37;;;;;;;14.08;80.66;94619.25;4919123;29;20435;-87
2021/06/01 13:23:27;;;;;;;3.90;3.60;;;;;;;14.09;80.63;94624.34;4919541;29;20511;-87
2021/06/01 13:31:56;;;;;;;2.30;2.10;;;;;;;13.98;77.76;94627.28;4918606;29;20467;-87
2021/06/01 13:37:32;;;;;;;2.93;2.73;;;;;;;14.03;79.52;94632.91;4919046;29;20525;-87
2021/06/01 13:40:15;;;;;;;3.17;2.87;;;;;;;14.05;80.15;94641.50;4917745;29;20467;-86
2021/06/01 13:49:10;;;;;;;2.90;2.70;;;;;;;14.19;79.12;94635.63;4940048;28;20798;-87
2021/06/01 13:57:13;;;;;;;2.40;2.30;;;;;;;14.14;78.55;94653.72;5034620;28;20483;-87
2021/06/01 13:59:46;;;;;;;4.20;2.70;;;;;;;14.13;78.32;94649.44;5036286;28;20475;-88
2021/06/01 14:30:39;;;;;;;86.87;14.27;;;;;;;13.78;80.38;94655.69;4976748;28;20425;-88
2021/06/01 14:36:01;;;;;;;7.53;3.60;;;;;;;13.61;83.85;94661.84;4976493;28;20486;-90
2021/06/01 15:24:46;;;;;;;2.60;2.40;;;;;;;13.55;86.88;94673.81;4823953;29;20443;-85
2021/06/01 15:33:01;;;;;;;3.87;2.60;;;;;;;13.52;85.08;94674.13;4843776;29;20444;-83
2021/06/01 15:54:17;;;;;;;2.60;2.40;;;;;;;13.24;85.28;94688.38;5014863;28;20400;-84
2021/06/01 16:13:44;;;;;;;2.33;2.10;;;;;;;13.06;83.06;94711.25;5016060;28;20454;-88
2021/06/01 16:22:00;;;;;;;4.73;3.93;;;;;;;13.09;84.63;94708.31;4958786;29;20418;-87
2021/06/01 16:30:09;;;;;;;6.90;2.70;;;;;;;13.47;82.94;94720.38;4957766;29;20439;-83
2021/06/01 16:43:46;;;;;;;3.30;1.80;;;;;;;13.53;79.74;94748.75;4933680;29;20444;-88
2021/06/01 17:03:12;;;;;;;4.70;1.50;;;;;;;13.48;79.18;94770.31;4903599;29;20484;-91
2021/06/01 17:05:45;;;;;;;2.37;1.53;;;;;;;13.46;79.62;94758.25;4902742;29;20561;-86
2021/06/01 17:08:44;;;;;;;1.63;1.53;;;;;;;13.41;79.88;94763.97;4901785;29;20455;-88
2021/06/01 17:11:14;;;;;;;6.30;1.70;;;;;;;13.47;79.87;94760.75;4903925;29;20462;-88
2021/06/01 17:13:46;;;;;;;21.50;11.53;;;;;;;13.51;80.20;94766.53;4994627;28;20459;-89
2021/06/01 17:16:19;;;;;;;2.77;2.20;;;;;;;13.53;80.06;94762.75;5015896;28;20527;-89
2021/06/01 17:19:19;;;;;;;1.83;1.73;;;;;;;13.51;80.48;94761.25;5021406;28;20499;-90
2021/06/01 17:35:59;;;;;;;3.20;2.90;;;;;;;13.37;83.89;94770.53;5017753;28;20409;-90
2021/06/01 17:38:28;;;;;;;2.67;2.47;;;;;;;13.35;85.02;94772.50;5018284;28;20469;-89
2021/06/01 17:41:00;;;;;;;3.63;2.83;;;;;;;13.37;85.92;94774.97;5018365;28;20456;-88
2021/06/01 17:50:11;;;;;;;2.87;2.60;;;;;;;13.22;88.85;94793.09;5017223;28;20489;-90